createdAt,value
2023-03-24T00:00:33.262Z,59.92
2023-03-24T00:03:25.956Z,60.20
2023-03-24T00:05:58.703Z,59.91
2023-03-24T00:08:31.067Z,59.96
2023-03-24T00:11:04.491Z,60.03
2023-03-24T00:13:38.532Z,60.17
2023-03-24T00:16:10.792Z,60.30
2023-03-24T00:18:41.973Z,60.60
2023-03-24T00:21:13.936Z,60.63
2023-03-24T00:23:44.664Z,60.68
2023-03-24T00:26:15.812Z,60.56
2023-03-24T00:28:48.143Z,60.67
2023-03-24T00:31:20.031Z,60.52
2023-03-24T00:33:51.525Z,60.69
2023-03-24T00:36:24.699Z,60.80
2023-03-24T00:38:55.531Z,60.80
2023-03-24T00:41:27.692Z,60.92
2023-03-24T00:43:59.298Z,61.00
2023-03-24T00:46:31.168Z,60.94
2023-03-24T00:49:03.877Z,60.83
2023-03-24T00:51:35.848Z,60.97
2023-03-24T00:54:07.121Z,60.77
2023-03-24T00:56:40.793Z,61.10
2023-03-24T00:59:14.797Z,61.03
2023-03-24T01:01:47.037Z,60.81
2023-03-24T01:04:21.188Z,60.78
2023-03-24T01:06:56.289Z,60.79
2023-03-24T01:09:27.055Z,60.77
2023-03-24T01:11:58.994Z,61.00
2023-03-24T01:14:29.954Z,61.15
2023-03-24T01:17:01.237Z,61.45
2023-03-24T01:19:33.666Z,61.61
2023-03-24T01:22:06.183Z,61.81
2023-03-24T01:24:37.290Z,62.04
2023-03-24T01:27:08.453Z,62.09
2023-03-24T01:29:39.058Z,62.00
2023-03-24T01:32:10.529Z,62.20
2023-03-24T01:34:41.752Z,62.13
2023-03-24T01:37:12.899Z,62.13
2023-03-24T01:39:44.357Z,61.99
2023-03-24T01:42:18.569Z,61.68
2023-03-24T01:44:49.606Z,61.71
2023-03-24T01:47:20.576Z,61.70
2023-03-24T01:49:52.882Z,61.63
2023-03-24T01:52:26.002Z,61.77
2023-03-24T01:54:59.202Z,62.01
2023-03-24T01:57:28.348Z,61.99
2023-03-24T02:00:03.369Z,62.48
2023-03-24T02:02:55.549Z,61.96
2023-03-24T02:05:29.261Z,58.05
2023-03-24T02:08:03.477Z,56.57
2023-03-24T02:10:35.392Z,57.47
2023-03-24T02:13:06.995Z,58.20
2023-03-24T02:15:42.027Z,59.07
2023-03-24T02:18:19.304Z,59.44
2023-03-24T02:21:16.166Z,59.71
2023-03-24T02:24:00.648Z,59.71
2023-03-24T02:26:48.763Z,60.02
2023-03-24T02:29:36.387Z,60.22
2023-03-24T02:32:20.066Z,60.44
2023-03-24T02:35:10.987Z,60.82
2023-03-24T02:37:53.540Z,60.92
2023-03-24T02:40:28.161Z,60.92
2023-03-24T02:43:03.294Z,61.06
2023-03-24T02:45:36.542Z,61.17
2023-03-24T02:48:18.299Z,61.26
2023-03-24T02:50:52.429Z,61.40
2023-03-24T02:53:26.390Z,61.31
2023-03-24T02:56:23.449Z,61.25
2023-03-24T02:58:56.760Z,61.29
2023-03-24T03:01:32.566Z,61.23
2023-03-24T03:04:29.515Z,61.16
2023-03-24T03:07:02.044Z,61.13
2023-03-24T03:09:33.421Z,61.20
2023-03-24T03:12:06.000Z,61.17
2023-03-24T03:14:39.233Z,61.20
2023-03-24T03:17:14.610Z,61.11
2023-03-24T03:19:47.818Z,61.07
2023-03-24T03:22:20.036Z,61.16
2023-03-24T03:24:54.145Z,61.41
2023-03-24T03:27:27.487Z,62.00
2023-03-24T03:30:03.114Z,61.74
2023-03-24T03:32:39.414Z,62.03
2023-03-24T03:35:12.955Z,62.68
2023-03-24T03:37:47.578Z,66.18
2023-03-24T03:40:21.079Z,62.31
2023-03-24T03:42:55.279Z,58.49
2023-03-24T03:45:26.032Z,55.79
2023-03-24T03:47:56.847Z,55.95
2023-03-24T03:50:27.903Z,56.65
2023-03-24T03:52:58.970Z,57.25
2023-03-24T03:55:29.679Z,57.84
2023-03-24T03:58:00.781Z,58.21
2023-03-24T04:00:44.560Z,58.55
2023-03-24T04:03:51.698Z,58.90
2023-03-24T04:06:31.391Z,59.60
2023-03-24T04:09:06.724Z,60.27
2023-03-24T04:11:47.537Z,60.51
2023-03-24T04:14:53.908Z,60.82
2023-03-24T04:18:11.864Z,60.87
2023-03-24T04:21:10.299Z,61.14
2023-03-24T04:23:44.826Z,61.45
2023-03-24T04:26:18.720Z,61.68
2023-03-24T04:28:58.275Z,65.60
2023-03-24T04:31:34.608Z,67.08
2023-03-24T04:34:09.553Z,62.72
2023-03-24T04:36:43.611Z,57.03
2023-03-24T04:39:29.194Z,54.68
2023-03-24T04:42:04.757Z,55.24
2023-03-24T04:44:36.070Z,56.32
2023-03-24T04:47:28.331Z,56.87
2023-03-24T04:50:30.716Z,58.08
2023-03-24T04:53:02.407Z,59.35
2023-03-24T04:55:45.976Z,60.42
2023-03-24T04:58:17.093Z,60.73
2023-03-24T05:00:49.464Z,61.49
2023-03-24T05:03:20.499Z,65.38
2023-03-24T05:05:52.028Z,67.04
2023-03-24T05:08:22.879Z,63.35
2023-03-24T05:10:54.198Z,57.68
2023-03-24T05:13:25.245Z,56.32
2023-03-24T05:16:00.321Z,57.18
2023-03-24T05:18:36.164Z,58.23
2023-03-24T05:21:08.284Z,58.85
2023-03-24T05:23:39.467Z,60.03
2023-03-24T05:26:10.550Z,64.37
2023-03-24T05:28:53.118Z,67.20
2023-03-24T05:31:25.146Z,63.65
2023-03-24T05:34:06.018Z,59.25
2023-03-24T05:36:42.516Z,57.77
2023-03-24T05:39:13.087Z,60.44
2023-03-24T05:41:54.337Z,60.92
2023-03-24T05:44:24.960Z,64.94
2023-03-24T05:47:06.159Z,66.50
2023-03-24T05:49:36.977Z,63.32
2023-03-24T05:52:09.579Z,60.87
2023-03-24T05:54:39.953Z,57.57
2023-03-24T05:57:19.404Z,56.54
2023-03-24T06:00:17.220Z,57.60
2023-03-24T06:02:58.110Z,59.33
2023-03-24T06:05:40.176Z,65.70
2023-03-24T06:08:11.701Z,65.83
2023-03-24T06:10:42.763Z,62.72
2023-03-24T06:13:14.003Z,59.00
2023-03-24T06:15:47.171Z,58.39
2023-03-24T06:18:44.655Z,60.57
2023-03-24T06:21:33.155Z,61.29
2023-03-24T06:24:06.746Z,66.51
2023-03-24T06:26:38.067Z,67.26
2023-03-24T06:29:09.287Z,64.35
2023-03-24T06:31:41.448Z,62.31
2023-03-24T06:34:12.380Z,60.76
2023-03-24T06:36:45.068Z,58.79
2023-03-24T06:39:16.107Z,58.44
2023-03-24T06:41:46.936Z,60.46
2023-03-24T06:44:19.244Z,61.73
2023-03-24T06:46:50.044Z,66.56
2023-03-24T06:49:21.491Z,66.44
2023-03-24T06:51:52.537Z,63.90
2023-03-24T06:54:24.166Z,60.75
2023-03-24T06:56:55.277Z,56.85
2023-03-24T06:59:27.406Z,56.64
2023-03-24T07:01:58.135Z,58.28
2023-03-24T07:04:36.889Z,59.73
2023-03-24T07:08:12.774Z,60.54
2023-03-24T07:10:40.139Z,64.44
2023-03-24T07:13:10.997Z,63.32
2023-03-24T07:15:42.448Z,60.74
2023-03-24T07:18:14.152Z,57.18
2023-03-24T07:20:47.980Z,56.41
2023-03-24T07:23:21.206Z,56.85
2023-03-24T07:26:00.216Z,60.00
2023-03-24T07:29:00.364Z,60.59
2023-03-24T07:31:41.127Z,62.92
2023-03-24T07:34:14.317Z,61.38
2023-03-24T07:36:45.153Z,56.40
2023-03-24T07:39:18.641Z,56.77
2023-03-24T07:41:49.526Z,58.59
2023-03-24T07:44:29.835Z,59.82
2023-03-24T07:47:04.386Z,60.70
2023-03-24T07:49:35.716Z,61.16
2023-03-24T07:52:09.625Z,63.94
2023-03-24T07:54:49.381Z,62.98
2023-03-24T07:57:39.254Z,58.06
2023-03-24T08:00:16.329Z,56.93
2023-03-24T08:02:53.716Z,58.24
2023-03-24T08:05:44.742Z,58.34
2023-03-24T08:08:22.738Z,59.34
2023-03-24T08:10:53.656Z,59.62
2023-03-24T08:13:24.502Z,59.55
2023-03-24T08:15:55.965Z,59.62
2023-03-24T08:18:26.887Z,60.60
2023-03-24T08:20:59.773Z,60.72
2023-03-24T08:23:30.528Z,61.20
2023-03-24T08:26:02.695Z,60.45
2023-03-24T08:28:33.817Z,59.31
2023-03-24T08:31:05.186Z,59.17
2023-03-24T08:33:36.407Z,59.94
2023-03-24T08:36:08.391Z,59.58
2023-03-24T08:38:39.415Z,59.82
2023-03-24T08:41:10.194Z,59.60
2023-03-24T08:43:40.801Z,58.53
2023-03-24T08:46:13.729Z,58.66
2023-03-24T08:48:45.307Z,58.80
2023-03-24T08:51:17.142Z,58.81
2023-03-24T08:53:47.800Z,58.05
2023-03-24T08:56:18.965Z,57.78
2023-03-24T08:58:51.646Z,56.58
2023-03-24T09:01:23.251Z,56.43
2023-03-24T09:03:54.111Z,56.80
2023-03-24T09:06:25.029Z,57.02
2023-03-24T09:08:55.890Z,56.23
2023-03-24T09:11:26.725Z,56.31
2023-03-24T09:13:57.968Z,56.45
2023-03-24T09:16:28.794Z,56.01
2023-03-24T09:18:59.425Z,54.34
2023-03-24T09:21:30.780Z,54.92
2023-03-24T09:24:01.512Z,53.49
2023-03-24T09:26:34.153Z,52.42
2023-03-24T09:29:05.438Z,52.13
2023-03-24T09:31:36.536Z,52.62
2023-03-24T09:34:07.624Z,52.99
2023-03-24T09:36:38.770Z,53.12
2023-03-24T09:39:09.702Z,51.86
2023-03-24T09:41:41.863Z,50.69
2023-03-24T09:44:14.899Z,50.86
2023-03-24T09:46:47.987Z,49.48
2023-03-24T09:49:23.991Z,46.36
2023-03-24T09:51:56.727Z,48.18
2023-03-24T09:54:32.652Z,48.07
2023-03-24T09:57:05.938Z,46.08
2023-03-24T09:59:38.206Z,47.39
2023-03-24T10:02:13.939Z,48.08
2023-03-24T10:04:44.984Z,46.60
2023-03-24T10:07:20.738Z,47.00
2023-03-24T10:09:55.055Z,45.40
2023-03-24T10:12:31.504Z,46.90
2023-03-24T10:15:11.806Z,46.37
2023-03-24T10:17:47.312Z,43.89
2023-03-24T10:20:22.812Z,44.67
2023-03-24T10:22:56.867Z,45.93
2023-03-24T10:25:28.821Z,45.02
2023-03-24T10:28:01.445Z,44.06
2023-03-24T10:30:34.853Z,43.58
2023-03-24T10:33:06.412Z,43.87
2023-03-24T10:35:38.755Z,43.21
2023-03-24T10:38:16.868Z,43.21
2023-03-24T10:40:48.642Z,43.15
2023-03-24T10:43:20.427Z,41.75
2023-03-24T10:45:52.915Z,41.95
2023-03-24T10:48:37.686Z,42.09
2023-03-24T10:51:12.758Z,41.64
2023-03-24T10:53:44.296Z,41.03
2023-03-24T10:56:17.297Z,39.91
2023-03-24T10:58:49.976Z,40.22
2023-03-24T11:01:24.939Z,40.19
2023-03-24T11:04:01.282Z,38.96
2023-03-24T11:06:32.619Z,39.52
2023-03-24T11:09:11.679Z,40.26
2023-03-24T11:11:42.180Z,38.71
2023-03-24T11:14:20.224Z,39.10
2023-03-24T11:16:53.564Z,39.13
2023-03-24T11:19:27.226Z,38.95
2023-03-24T11:21:56.198Z,38.23
2023-03-24T11:24:28.912Z,38.62
2023-03-24T11:27:02.306Z,36.93
2023-03-24T11:29:34.389Z,36.59
2023-03-24T11:32:11.206Z,36.13
2023-03-24T11:34:46.497Z,36.09
2023-03-24T11:37:19.593Z,37.13
2023-03-24T11:40:07.215Z,37.84
2023-03-24T11:42:43.175Z,38.23
2023-03-24T11:45:26.482Z,38.18
2023-03-24T11:47:58.093Z,37.64
2023-03-24T11:50:34.643Z,37.81
2023-03-24T11:53:09.111Z,38.07
2023-03-24T11:55:44.436Z,37.83
2023-03-24T11:58:18.320Z,38.55
2023-03-24T12:00:51.449Z,38.97
2023-03-24T12:03:33.405Z,38.23
2023-03-24T12:06:07.935Z,37.85
2023-03-24T12:08:43.760Z,36.92
2023-03-24T12:11:18.846Z,36.69
2023-03-24T12:13:50.951Z,36.23
2023-03-24T12:16:28.615Z,35.34
2023-03-24T12:19:16.689Z,35.60
2023-03-24T12:21:51.994Z,35.65
2023-03-24T12:24:26.967Z,35.45
2023-03-24T12:26:59.436Z,35.84
2023-03-24T12:29:38.548Z,34.90
2023-03-24T12:32:22.280Z,34.99
2023-03-24T12:35:03.778Z,35.12
2023-03-24T12:37:40.972Z,34.95
2023-03-24T12:40:23.699Z,34.34
2023-03-24T12:43:00.350Z,34.52
2023-03-24T12:45:34.974Z,34.44
2023-03-24T12:48:16.162Z,34.42
2023-03-24T12:50:51.930Z,35.31
2023-03-24T12:53:32.011Z,34.88
2023-03-24T12:56:05.380Z,35.17
2023-03-24T12:58:41.587Z,35.06
2023-03-24T13:01:15.312Z,35.35
2023-03-24T13:03:48.755Z,35.45
2023-03-24T13:06:22.136Z,35.58
2023-03-24T13:08:58.586Z,35.83
2023-03-24T13:11:33.524Z,36.12
2023-03-24T13:14:06.393Z,35.66
2023-03-24T13:16:38.498Z,35.79
2023-03-24T13:19:17.289Z,35.96
2023-03-24T13:21:48.197Z,36.36
2023-03-24T13:24:19.570Z,36.54
2023-03-24T13:26:54.636Z,36.54
2023-03-24T13:29:41.918Z,36.95
2023-03-24T13:41:00.789Z,38.46
2023-03-24T13:43:33.214Z,38.66
2023-03-24T13:46:06.430Z,38.88
2023-03-24T13:48:42.046Z,39.02
2023-03-24T13:51:17.560Z,39.18
2023-03-24T13:53:52.512Z,39.49
2023-03-24T13:56:28.786Z,39.56
2023-03-24T13:59:24.100Z,39.95
2023-03-24T14:02:08.322Z,40.50
2023-03-24T14:04:47.490Z,41.23
2023-03-24T14:07:31.654Z,42.10
2023-03-24T14:10:03.321Z,42.63
2023-03-24T14:12:35.293Z,43.04
2023-03-24T14:15:14.042Z,43.08
2023-03-24T14:17:47.652Z,42.88
2023-03-24T14:20:29.486Z,43.20
2023-03-24T14:23:00.532Z,42.94
2023-03-24T14:25:31.993Z,42.73
2023-03-24T14:28:22.197Z,43.09
2023-03-24T14:31:03.843Z,43.96
2023-03-24T14:33:35.382Z,44.13
2023-03-24T14:36:12.145Z,44.11
2023-03-24T14:38:44.525Z,44.46
2023-03-24T14:41:17.148Z,44.68
2023-03-24T14:43:58.943Z,44.69
2023-03-24T14:46:36.669Z,44.11
2023-03-24T14:49:09.695Z,44.24
2023-03-24T14:51:42.185Z,43.99
2023-03-24T14:54:16.878Z,43.70
2023-03-24T14:56:50.414Z,43.44
2023-03-24T14:59:27.556Z,43.23
2023-03-24T15:02:01.524Z,43.05
2023-03-24T15:04:34.074Z,42.56
2023-03-24T15:07:06.819Z,42.69
2023-03-24T15:09:39.984Z,43.00
2023-03-24T15:12:10.713Z,42.94
2023-03-24T15:14:41.484Z,42.62
2023-03-24T15:17:19.787Z,42.16
2023-03-24T15:19:53.089Z,42.33
2023-03-24T15:22:24.025Z,42.38
2023-03-24T15:24:54.965Z,42.21
2023-03-24T15:27:27.673Z,41.91
2023-03-24T15:30:00.433Z,41.53
2023-03-24T15:32:33.005Z,41.58
2023-03-24T15:35:07.735Z,41.67
2023-03-24T15:37:41.488Z,41.85
2023-03-24T15:40:26.205Z,41.86
2023-03-24T15:42:57.647Z,41.85
2023-03-24T15:45:30.118Z,41.78
2023-03-24T15:48:04.996Z,41.94
2023-03-24T15:50:36.627Z,41.89
2023-03-24T15:53:08.787Z,42.05
2023-03-24T15:55:39.720Z,42.11
2023-03-24T15:58:23.336Z,42.29
2023-03-24T16:00:55.508Z,42.58
2023-03-24T16:03:27.330Z,42.67
2023-03-24T16:06:01.728Z,42.87
2023-03-24T16:08:36.242Z,42.87
2023-03-24T16:11:11.482Z,43.05
2023-03-24T16:13:43.314Z,43.32
2023-03-24T16:16:23.319Z,43.40
2023-03-24T16:18:55.120Z,43.53
2023-03-24T16:21:26.729Z,43.73
2023-03-24T16:23:58.568Z,43.92
2023-03-24T16:26:30.807Z,44.07
2023-03-24T16:29:08.085Z,44.09
2023-03-24T16:31:38.815Z,44.21
2023-03-24T16:34:09.651Z,44.19
2023-03-24T16:36:40.997Z,44.29
2023-03-24T16:39:15.888Z,44.06
2023-03-24T16:41:48.037Z,44.10
2023-03-24T16:44:18.724Z,44.01
2023-03-24T16:46:51.802Z,44.01
2023-03-24T16:49:23.781Z,43.97
2023-03-24T16:51:55.027Z,44.16
2023-03-24T16:54:26.066Z,44.91
2023-03-24T16:56:56.952Z,45.25
2023-03-24T16:59:28.285Z,45.24
2023-03-24T17:02:04.768Z,45.34
2023-03-24T17:04:36.673Z,45.62
2023-03-24T17:07:07.849Z,46.01
2023-03-24T17:09:38.765Z,46.30
2023-03-24T17:12:10.994Z,46.99
2023-03-24T17:14:43.016Z,47.54
2023-03-24T17:17:13.673Z,47.97
2023-03-24T17:19:44.350Z,48.39
2023-03-24T17:22:17.801Z,48.92
2023-03-24T17:24:50.066Z,49.14
2023-03-24T17:27:21.775Z,49.46
2023-03-24T17:29:52.793Z,49.80
2023-03-24T17:32:29.900Z,49.86
2023-03-24T17:35:01.515Z,50.02
2023-03-24T17:37:32.506Z,50.16
2023-03-24T17:50:21.035Z,51.38
2023-03-24T17:52:52.265Z,51.60
2023-03-24T17:55:23.184Z,52.28
2023-03-24T17:57:54.332Z,53.47
2023-03-24T18:00:25.601Z,54.42
2023-03-24T18:02:56.734Z,55.29
2023-03-24T18:05:27.896Z,55.87
2023-03-24T18:07:59.108Z,56.60
2023-03-24T18:10:29.845Z,56.88
2023-03-24T18:13:01.703Z,57.07
2023-03-24T18:15:32.424Z,57.39
2023-03-24T18:18:03.299Z,57.82
2023-03-24T18:20:34.300Z,57.83
2023-03-24T18:23:05.236Z,58.52
2023-03-24T18:25:36.038Z,58.88
2023-03-24T18:28:07.823Z,59.47
2023-03-24T18:30:39.170Z,59.67
2023-03-24T18:33:10.983Z,59.86
2023-03-24T18:35:42.449Z,60.86
2023-03-24T18:38:15.350Z,61.82
2023-03-24T18:40:48.668Z,59.43
2023-03-24T18:43:20.626Z,61.72
2023-03-24T18:45:51.606Z,63.06
2023-03-24T18:48:23.112Z,58.97
2023-03-24T18:50:53.962Z,59.85
2023-03-24T18:53:25.005Z,62.50
2023-03-24T18:55:55.619Z,60.18
2023-03-24T18:58:27.165Z,58.93
2023-03-24T19:00:58.766Z,61.67
2023-03-24T19:03:30.084Z,63.50
2023-03-24T19:06:02.862Z,59.33
2023-03-24T19:08:34.945Z,58.74
2023-03-24T19:11:06.385Z,61.21
2023-03-24T19:13:37.513Z,61.71
2023-03-24T19:16:09.505Z,58.51
2023-03-24T19:18:40.978Z,59.05
2023-03-24T19:21:12.273Z,60.89
2023-03-24T19:23:43.839Z,63.25
2023-03-24T19:26:16.428Z,61.37
2023-03-24T19:28:48.519Z,58.67
2023-03-24T19:31:20.248Z,60.58
2023-03-24T19:33:52.461Z,62.40
2023-03-24T19:36:23.300Z,64.53
2023-03-24T19:38:54.712Z,63.53
2023-03-24T19:41:26.598Z,59.65
2023-03-24T19:43:57.589Z,56.37
2023-03-24T19:46:28.541Z,57.53
2023-03-24T19:48:59.469Z,59.26
2023-03-24T19:51:30.288Z,60.95
2023-03-24T19:54:01.470Z,62.36
2023-03-24T19:56:31.937Z,62.08
2023-03-24T19:59:02.592Z,58.74
2023-03-24T20:01:35.787Z,57.42
2023-03-24T20:04:07.045Z,59.40
2023-03-24T20:06:37.615Z,60.93
2023-03-24T20:09:08.876Z,62.11
2023-03-24T20:11:40.674Z,62.37
2023-03-24T20:14:11.911Z,58.82
2023-03-24T20:16:42.434Z,57.59
2023-03-24T20:19:13.482Z,59.21
2023-03-24T20:21:44.622Z,60.97
2023-03-24T20:24:16.075Z,62.07
2023-03-24T20:26:48.319Z,62.68
2023-03-24T20:29:19.578Z,59.28
2023-03-24T20:31:50.274Z,56.50
2023-03-24T20:34:21.460Z,58.68
2023-03-24T20:36:52.338Z,61.03
2023-03-24T20:39:23.691Z,62.39
2023-03-24T20:41:54.502Z,61.87
2023-03-24T20:44:25.415Z,57.50
2023-03-24T20:46:57.315Z,56.96
2023-03-24T20:49:28.394Z,59.31
2023-03-24T20:52:00.170Z,60.94
2023-03-24T20:54:32.753Z,62.54
2023-03-24T20:57:03.826Z,61.81
2023-03-24T20:59:35.722Z,57.77
2023-03-24T21:02:07.572Z,58.26
2023-03-24T21:04:38.956Z,60.28
2023-03-24T21:07:09.692Z,61.89
2023-03-24T21:09:41.211Z,62.33
2023-03-24T21:12:12.344Z,58.03
2023-03-24T21:14:46.876Z,58.69
2023-03-24T21:17:21.231Z,61.17
2023-03-24T21:19:54.824Z,63.26
2023-03-24T21:22:26.382Z,60.95
2023-03-24T21:24:59.773Z,57.28
2023-03-24T21:27:31.037Z,59.33
2023-03-24T21:30:01.808Z,61.46
2023-03-24T21:32:32.341Z,62.70
2023-03-24T21:35:03.424Z,59.36
2023-03-24T21:37:33.969Z,58.64
2023-03-24T21:40:09.197Z,60.19
2023-03-24T21:42:41.701Z,62.37
2023-03-24T21:45:15.571Z,62.83
2023-03-24T21:47:47.363Z,59.83
2023-03-24T21:50:23.540Z,57.13
2023-03-24T21:52:55.493Z,59.93
2023-03-24T21:55:27.131Z,62.05
2023-03-24T21:57:58.026Z,63.08
2023-03-24T22:00:31.028Z,60.82
2023-03-24T22:03:01.897Z,58.17
2023-03-24T22:05:33.190Z,59.16
2023-03-24T22:08:06.828Z,61.48
2023-03-24T22:10:42.780Z,63.49
2023-03-24T22:13:13.400Z,63.10
2023-03-24T22:15:44.441Z,58.57
2023-03-24T22:18:15.275Z,57.90
2023-03-24T22:20:52.987Z,60.05
2023-03-24T22:23:24.749Z,62.74
2023-03-24T22:25:55.986Z,64.45
2023-03-24T22:28:26.716Z,62.09
2023-03-24T22:31:02.062Z,59.68
2023-03-24T22:33:33.101Z,57.19
2023-03-24T22:36:04.873Z,59.03
2023-03-24T22:38:35.681Z,59.87
2023-03-24T22:41:09.518Z,61.51
2023-03-24T22:43:42.028Z,65.89
2023-03-24T22:46:13.069Z,62.84
2023-03-24T22:48:44.146Z,60.30
2023-03-24T22:51:19.545Z,58.15
2023-03-24T22:53:50.438Z,57.63
2023-03-24T22:56:21.463Z,59.77
2023-03-24T22:58:52.507Z,63.90
2023-03-24T23:01:23.761Z,62.70
2023-03-24T23:03:54.575Z,60.44
2023-03-24T23:06:27.722Z,58.29
2023-03-24T23:09:00.041Z,58.06
2023-03-24T23:11:31.487Z,59.58
2023-03-24T23:14:05.905Z,62.20
2023-03-24T23:16:38.556Z,65.84
2023-03-24T23:19:09.947Z,62.64
2023-03-24T23:21:41.278Z,59.50
2023-03-24T23:24:12.123Z,58.20
2023-03-24T23:26:42.955Z,60.44
2023-03-24T23:29:14.455Z,64.04
2023-03-24T23:31:45.823Z,63.48
2023-03-24T23:34:17.100Z,60.62
2023-03-24T23:36:50.608Z,58.20
2023-03-24T23:39:21.123Z,59.90
2023-03-24T23:41:52.269Z,63.16
2023-03-24T23:44:22.601Z,63.88
2023-03-24T23:46:53.536Z,62.81
2023-03-24T23:49:23.970Z,60.37
2023-03-24T23:51:55.108Z,58.31
2023-03-24T23:54:26.970Z,60.97
2023-03-24T23:56:57.937Z,63.17
2023-03-24T23:59:28.842Z,65.24
